地図

経路データ

SID SEASON NUMBER BASIN SUBBASIN NAME ISO_TIME NATURE LAT LON WMO_WIND WMO_PRES WMO_AGENCY TRACK_TYPE DIST2LAND LANDFALL IFLAG USA_AGENCY USA_ATCF_ID USA_LAT USA_LON USA_RECORD USA_STATUS USA_WIND USA_PRES USA_SSHS USA_R34_NE USA_R34_SE USA_R34_SW USA_R34_NW USA_R50_NE USA_R50_SE USA_R50_SW USA_R50_NW USA_R64_NE USA_R64_SE USA_R64_SW USA_R64_NW USA_POCI USA_ROCI USA_RMW USA_EYE TOKYO_LAT TOKYO_LON TOKYO_GRADE TOKYO_WIND TOKYO_PRES TOKYO_R50_DIR TOKYO_R50_LONG TOKYO_R50_SHORT TOKYO_R30_DIR TOKYO_R30_LONG TOKYO_R30_SHORT TOKYO_LAND CMA_LAT CMA_LON CMA_CAT CMA_WIND CMA_PRES HKO_LAT HKO_LON HKO_CAT HKO_WIND HKO_PRES NEWDELHI_LAT NEWDELHI_LON NEWDELHI_GRADE NEWDELHI_WIND NEWDELHI_PRES NEWDELHI_CI NEWDELHI_DP NEWDELHI_POCI REUNION_LAT REUNION_LON REUNION_TYPE REUNION_WIND REUNION_PRES REUNION_TNUM REUNION_CI REUNION_RMW REUNION_R34_NE REUNION_R34_SE REUNION_R34_SW REUNION_R34_NW REUNION_R50_NE REUNION_R50_SE REUNION_R50_SW REUNION_R50_NW REUNION_R64_NE REUNION_R64_SE REUNION_R64_SW REUNION_R64_NW BOM_LAT BOM_LON BOM_TYPE BOM_WIND BOM_PRES BOM_TNUM BOM_CI BOM_RMW BOM_R34_NE BOM_R34_SE BOM_R34_SW BOM_R34_NW BOM_R50_NE BOM_R50_SE BOM_R50_SW BOM_R50_NW BOM_R64_NE BOM_R64_SE BOM_R64_SW BOM_R64_NW BOM_ROCI BOM_POCI BOM_EYE BOM_POS_METHOD BOM_PRES_METHOD NADI_LAT NADI_LON NADI_CAT NADI_WIND NADI_PRES WELLINGTON_LAT WELLINGTON_LON WELLINGTON_WIND WELLINGTON_PRES DS824_LAT DS824_LON DS824_STAGE DS824_WIND DS824_PRES TD9636_LAT TD9636_LON TD9636_STAGE TD9636_WIND TD9636_PRES TD9635_LAT TD9635_LON TD9635_WIND TD9635_PRES TD9635_ROCI NEUMANN_LAT NEUMANN_LON NEUMANN_CLASS NEUMANN_WIND NEUMANN_PRES MLC_LAT MLC_LON MLC_CLASS MLC_WIND MLC_PRES USA_GUST BOM_GUST BOM_GUST_PER REUNION_GUST REUNION_GUST_PER USA_SEAHGT USA_SEARAD_NE USA_SEARAD_SE USA_SEARAD_SW USA_SEARAD_NW STORM_SPEED STORM_DIR
1908171N15127 1908 22 WP MM NOT_NAMED 1908-06-18 16:00:00 NR 15.4000 127.200 main 344 341 __________O___ -1 15.4000 127.200 7 6 322
1908171N15127 1908 22 WP MM NOT_NAMED 1908-06-18 18:00:00 NR 15.5581 127.071 main 347 335 __________P___ -1 15.5581 127.071 7 6 322
1908171N15127 1908 22 WP MM NOT_NAMED 1908-06-18 21:00:00 NR 15.7984 126.876 main 342 334 __________P___ -1 15.7984 126.876 7 6 322
1908171N15127 1908 22 WP MM NOT_NAMED 1908-06-19 00:00:00 NR 16.0470 126.677 main 341 341 __________P___ -1 16.0470 126.677 7 6 323
1908171N15127 1908 22 WP MM NOT_NAMED 1908-06-19 03:00:00 NR 16.3089 126.471 main 349 342 __________P___ -1 16.3089 126.471 7 7 323
1908171N15127 1908 22 WP MM NOT_NAMED 1908-06-19 04:00:00 NR 16.4000 126.400 main 350 350 __________O___ -1 16.4000 126.400 7 7 324
1908171N15127 1908 22 WP MM NOT_NAMED 1908-06-19 06:00:00 NR 16.5886 126.256 main 361 355 __________P___ -1 16.5886 126.256 7 7 324
1908171N15127 1908 22 WP MM NOT_NAMED 1908-06-19 09:00:00 NR 16.8840 126.033 main 372 351 __________P___ -1 16.8840 126.033 7 7 324
1908171N15127 1908 22 WP MM NOT_NAMED 1908-06-19 12:00:00 NR 17.1891 125.805 main 351 332 __________P___ -1 17.1891 125.805 7 8 325
1908171N15127 1908 22 WP MM NOT_NAMED 1908-06-19 15:00:00 NR 17.4975 125.576 main 333 323 __________P___ -1 17.4975 125.576 7 8 325
1908171N15127 1908 22 WP MM NOT_NAMED 1908-06-19 16:00:00 NR 17.6000 125.500 main 325 317 __________O___ -1 17.6000 125.500 7 7 324
1908171N15127 1908 22 WP MM NOT_NAMED 1908-06-19 18:00:00 NR 17.7841 125.357 main 320 296 __________P___ -1 17.7841 125.357 7 7 324
1908171N15127 1908 22 WP MM NOT_NAMED 1908-06-19 21:00:00 NR 18.0601 125.144 main 296 274 __________P___ -1 18.0601 125.144 7 7 324
1908171N15127 1908 22 WP MM NOT_NAMED 1908-06-20 00:00:00 NR 18.3524 124.923 main 274 254 __________P___ -1 18.3524 124.923 7 8 325
1908171N15127 1908 22 WP MM NOT_NAMED 1908-06-20 03:00:00 NR 18.6798 124.685 main 255 244 __________P___ -1 18.6798 124.685 7 8 326
1908171N15127 1908 22 WP MM NOT_NAMED 1908-06-20 04:00:00 NR 18.8000 124.600 main 246 231 __________O___ -1 18.8000 124.600 7 9 325
1908171N15127 1908 22 WP MM NOT_NAMED 1908-06-20 06:00:00 NR 19.0580 124.404 main 234 219 __________P___ -1 19.0580 124.404 7 10 325
1908171N15127 1908 22 WP MM NOT_NAMED 1908-06-20 09:00:00 NR 19.4827 124.091 main 225 222 __________P___ -1 19.4827 124.091 7 11 326
1908171N15127 1908 22 WP MM NOT_NAMED 1908-06-20 12:00:00 NR 19.9441 123.777 main 230 231 __________P___ -1 19.9441 123.777 7 11 329
1908171N15127 1908 22 WP MM NOT_NAMED 1908-06-20 15:00:00 NR 20.4327 123.487 main 256 261 __________P___ -1 20.4327 123.487 7 11 332
1908171N15127 1908 22 WP MM NOT_NAMED 1908-06-20 16:00:00 NR 20.6000 123.400 main 271 263 __________O___ -1 20.6000 123.400 2 11 330
1908171N15127 1908 22 WP MM NOT_NAMED 1908-06-20 18:00:00 NR 20.9065 123.193 main 263 214 __________P___ -1 20.9065 123.193 2 11 330
1908171N15127 1908 22 WP MM NOT_NAMED 1908-06-20 21:00:00 NR 21.3845 122.913 main 214 185 __________P___ -1 21.3845 122.913 2 11 336
1908171N15127 1908 22 WP MM NOT_NAMED 1908-06-21 00:00:00 NR 21.9041 122.721 main 185 149 __________P___ -1 21.9041 122.721 2 11 349
1908171N15127 1908 22 WP MM NOT_NAMED 1908-06-21 03:00:00 NR 22.4875 122.673 main 149 140 __________P___ -1 22.4875 122.673 2 12 358
1908171N15127 1908 22 WP MM NOT_NAMED 1908-06-21 04:00:00 NR 22.7000 122.700 main 140 134 __________O___ -1 22.7000 122.700 2 14 12
1908171N15127 1908 22 WP MM NOT_NAMED 1908-06-21 06:00:00 NR 23.1806 122.831 main 143 138 __________P___ -1 23.1806 122.831 2 16 19
1908171N15127 1908 22 WP MM NOT_NAMED 1908-06-21 09:00:00 NR 23.9653 123.180 main 143 139 __________P___ -1 23.9653 123.180 2 18 25
1908171N15127 1908 22 WP MM NOT_NAMED 1908-06-21 12:00:00 NR 24.7760 123.660 main 172 171 __________P___ -1 24.7760 123.660 2 19 30
1908171N15127 1908 22 WP MM NOT_NAMED 1908-06-21 15:00:00 NR 25.5563 124.211 main 230 230 __________P___ -1 25.5563 124.211 2 18 33
1908171N15127 1908 22 WP MM NOT_NAMED 1908-06-21 16:00:00 NR 25.8000 124.400 main 256 256 __________O___ -1 25.8000 124.400 2 17 36
1908171N15127 1908 22 WP MM NOT_NAMED 1908-06-21 18:00:00 NR 26.2547 124.774 main 315 315 __________P___ -1 26.2547 124.774 2 16 38
1908171N15127 1908 22 WP MM NOT_NAMED 1908-06-21 21:00:00 NR 26.8666 125.327 main 392 400 __________P___ -1 26.8666 125.327 2 15 40
1908171N15127 1908 22 WP MM NOT_NAMED 1908-06-22 00:00:00 NR 27.4172 125.873 main 431 425 __________P___ -1 27.4172 125.873 2 14 42
1908171N15127 1908 22 WP MM NOT_NAMED 1908-06-22 03:00:00 NR 27.9320 126.418 main 453 449 __________P___ -1 27.9320 126.418 2 14 43
1908171N15127 1908 22 WP MM NOT_NAMED 1908-06-22 04:00:00 NR 28.1000 126.600 main 464 __________O___ -1 28.1000 126.600 2 14 43

デジタル台風データ・検索

IBTrACS Databaseについて

本データベースは、米国NOAAが公開する1842年以降の世界の熱帯低気圧のベストトラックデータアーカイブInternational Best Track Archive for Climate Stewardship (IBTrACS)を、ウェブで閲覧しやすい形式に変換したものです。

最終更新日:2021-11-26